To NAV CANADA Home Page Login to a new session Search on AWWS site Feedback and Comments Disclaimer Vers la page française équivalente Tips FAQ What's new on the site To the Forecasts and Observations / NOTAM section To "File a Flight Plan" website Publications and other links Update of the User's profile FIC Telephone Numbers My Weather Data Folder Route Weather Data Regional Weather Data Local Weather Data To the Forecasts and Observations / NOTAM section
Request Generated 09/27/2016 at 06:57:21 UTC . Weather information available at that time is displayed.

METAR/TAF

KUUJJUAQ/QC    

METAR CYVP 270600Z 34007KT 15SM SKC M03/M03 A3011 RMK AURBO SLP202=
METAR CYVP 270500Z 33006KT 15SM SKC M03/M03 A3010 RMK AURBO SLP199=
METAR CYVP 270400Z 34005KT 15SM SKC M02/M03 A3009 RMK AURBO SLP195=

TAF CYVP 270538Z 2706/2718 35005KT P6SM SKC PROB30 2709/2714 1/2SM
FZFG VV002
FM271500 19005KT P6SM SKC
RMK NXT FCST BY 271200Z=
Your time UTC time
Weather data provided by Environment Canada and NAV CANADA